sensor_id;sensor_type;location;lat;lon;timestamp;P1;durP1;ratioP1;P2;durP2;ratioP2
2896;SDS011;1458;49.728;9.228;2024-01-15T00:02:06;2.10;;;2.10;;
2896;SDS011;1458;49.728;9.228;2024-01-15T00:04:36;2.30;;;2.30;;
2896;SDS011;1458;49.728;9.228;2024-01-15T00:07:04;2.20;;;2.20;;
2896;SDS011;1458;49.728;9.228;2024-01-15T00:09:31;2.20;;;2.20;;
2896;SDS011;1458;49.728;9.228;2024-01-15T00:11:59;2.10;;;2.10;;
2896;SDS011;1458;49.728;9.228;2024-01-15T00:14:27;2.03;;;2.03;;
2896;SDS011;1458;49.728;9.228;2024-01-15T00:16:55;1.90;;;1.90;;
2896;SDS011;1458;49.728;9.228;2024-01-15T00:19:24;1.80;;;1.80;;
2896;SDS011;1458;49.728;9.228;2024-01-15T00:21:57;2.00;;;2.00;;
2896;SDS011;1458;49.728;9.228;2024-01-15T00:24:25;2.00;;;2.00;;
2896;SDS011;1458;49.728;9.228;2024-01-15T00:26:52;2.00;;;2.00;;
2896;SDS011;1458;49.728;9.228;2024-01-15T00:29:20;2.00;;;2.00;;
2896;SDS011;1458;49.728;9.228;2024-01-15T00:31:48;1.90;;;1.90;;
2896;SDS011;1458;49.728;9.228;2024-01-15T00:34:15;2.00;;;2.00;;
2896;SDS011;1458;49.728;9.228;2024-01-15T00:36:44;1.90;;;1.90;;
2896;SDS011;1458;49.728;9.228;2024-01-15T00:39:12;1.90;;;1.90;;
2896;SDS011;1458;49.728;9.228;2024-01-15T00:41:40;1.80;;;1.80;;
2896;SDS011;1458;49.728;9.228;2024-01-15T00:44:07;1.50;;;1.50;;
2896;SDS011;1458;49.728;9.228;2024-01-15T00:46:41;1.70;;;1.70;;
2896;SDS011;1458;49.728;9.228;2024-01-15T00:49:10;1.70;;;1.70;;
2896;SDS011;1458;49.728;9.228;2024-01-15T00:51:38;1.73;;;1.73;;
2896;SDS011;1458;49.728;9.228;2024-01-15T00:54:07;1.90;;;1.90;;
2896;SDS011;1458;49.728;9.228;2024-01-15T00:56:36;1.80;;;1.80;;
2896;SDS011;1458;49.728;9.228;2024-01-15T00:59:03;2.10;;;2.10;;
2896;SDS011;1458;49.728;9.228;2024-01-15T01:01:31;1.97;;;1.97;;
2896;SDS011;1458;49.728;9.228;2024-01-15T01:03:59;1.80;;;1.80;;
2896;SDS011;1458;49.728;9.228;2024-01-15T01:06:26;1.70;;;1.70;;
2896;SDS011;1458;49.728;9.228;2024-01-15T01:08:54;1.90;;;1.90;;
2896;SDS011;1458;49.728;9.228;2024-01-15T01:11:22;1.80;;;1.80;;
2896;SDS011;1458;49.728;9.228;2024-01-15T01:13:50;2.00;;;2.00;;
2896;SDS011;1458;49.728;9.228;2024-01-15T01:16:17;1.90;;;1.90;;
2896;SDS011;1458;49.728;9.228;2024-01-15T01:18:45;1.90;;;1.90;;
2896;SDS011;1458;49.728;9.228;2024-01-15T01:21:12;1.80;;;1.80;;
2896;SDS011;1458;49.728;9.228;2024-01-15T01:23:40;1.90;;;1.90;;
2896;SDS011;1458;49.728;9.228;2024-01-15T01:26:07;2.00;;;2.00;;
2896;SDS011;1458;49.728;9.228;2024-01-15T01:28:36;1.90;;;1.90;;
2896;SDS011;1458;49.728;9.228;2024-01-15T01:31:04;1.80;;;1.80;;
2896;SDS011;1458;49.728;9.228;2024-01-15T01:33:30;1.77;;;1.77;;
2896;SDS011;1458;49.728;9.228;2024-01-15T01:35:58;1.70;;;1.70;;
2896;SDS011;1458;49.728;9.228;2024-01-15T01:38:25;1.90;;;1.90;;
2896;SDS011;1458;49.728;9.228;2024-01-15T01:40:52;1.80;;;1.80;;
2896;SDS011;1458;49.728;9.228;2024-01-15T01:43:20;1.90;;;1.90;;
2896;SDS011;1458;49.728;9.228;2024-01-15T01:45:49;1.90;;;1.90;;
2896;SDS011;1458;49.728;9.228;2024-01-15T01:48:16;1.90;;;1.90;;
2896;SDS011;1458;49.728;9.228;2024-01-15T01:50:44;1.80;;;1.80;;
2896;SDS011;1458;49.728;9.228;2024-01-15T01:53:11;1.70;;;1.70;;
2896;SDS011;1458;49.728;9.228;2024-01-15T01:55:39;1.93;;;1.93;;
2896;SDS011;1458;49.728;9.228;2024-01-15T01:58:07;1.80;;;1.80;;
2896;SDS011;1458;49.728;9.228;2024-01-15T02:00:35;1.70;;;1.70;;
2896;SDS011;1458;49.728;9.228;2024-01-15T02:03:05;1.80;;;1.80;;
2896;SDS011;1458;49.728;9.228;2024-01-15T02:05:35;1.70;;;1.70;;
2896;SDS011;1458;49.728;9.228;2024-01-15T02:08:03;1.90;;;1.90;;
2896;SDS011;1458;49.728;9.228;2024-01-15T02:10:31;1.80;;;1.80;;
2896;SDS011;1458;49.728;9.228;2024-01-15T02:12:59;1.90;;;1.90;;
2896;SDS011;1458;49.728;9.228;2024-01-15T02:15:26;1.90;;;1.90;;
2896;SDS011;1458;49.728;9.228;2024-01-15T02:17:57;1.87;;;1.87;;
2896;SDS011;1458;49.728;9.228;2024-01-15T02:20:32;1.80;;;1.80;;
2896;SDS011;1458;49.728;9.228;2024-01-15T02:23:05;1.80;;;1.80;;
2896;SDS011;1458;49.728;9.228;2024-01-15T02:25:37;1.70;;;1.70;;
2896;SDS011;1458;49.728;9.228;2024-01-15T02:28:05;1.70;;;1.70;;
2896;SDS011;1458;49.728;9.228;2024-01-15T02:30:34;1.70;;;1.70;;
2896;SDS011;1458;49.728;9.228;2024-01-15T02:33:05;1.60;;;1.60;;
2896;SDS011;1458;49.728;9.228;2024-01-15T02:35:33;1.60;;;1.60;;
2896;SDS011;1458;49.728;9.228;2024-01-15T02:38:03;1.73;;;1.73;;
2896;SDS011;1458;49.728;9.228;2024-01-15T02:40:31;1.70;;;1.70;;
2896;SDS011;1458;49.728;9.228;2024-01-15T02:42:59;1.70;;;1.70;;
2896;SDS011;1458;49.728;9.228;2024-01-15T02:45:27;1.80;;;1.80;;
2896;SDS011;1458;49.728;9.228;2024-01-15T02:47:54;1.80;;;1.80;;
2896;SDS011;1458;49.728;9.228;2024-01-15T02:50:22;1.90;;;1.90;;
2896;SDS011;1458;49.728;9.228;2024-01-15T02:52:49;1.87;;;1.87;;
2896;SDS011;1458;49.728;9.228;2024-01-15T02:55:18;1.80;;;1.80;;
2896;SDS011;1458;49.728;9.228;2024-01-15T02:57:45;1.80;;;1.80;;
2896;SDS011;1458;49.728;9.228;2024-01-15T03:00:13;1.80;;;1.80;;
2896;SDS011;1458;49.728;9.228;2024-01-15T03:02:44;1.70;;;1.70;;
2896;SDS011;1458;49.728;9.228;2024-01-15T03:05:11;1.80;;;1.80;;
2896;SDS011;1458;49.728;9.228;2024-01-15T03:07:39;1.77;;;1.77;;
2896;SDS011;1458;49.728;9.228;2024-01-15T03:10:06;1.60;;;1.60;;
2896;SDS011;1458;49.728;9.228;2024-01-15T03:12:36;1.70;;;1.70;;
2896;SDS011;1458;49.728;9.228;2024-01-15T03:15:04;1.70;;;1.70;;
2896;SDS011;1458;49.728;9.228;2024-01-15T03:17:32;1.60;;;1.60;;
2896;SDS011;1458;49.728;9.228;2024-01-15T03:20:00;1.60;;;1.60;;
2896;SDS011;1458;49.728;9.228;2024-01-15T03:22:28;1.60;;;1.60;;
2896;SDS011;1458;49.728;9.228;2024-01-15T03:24:56;1.70;;;1.70;;
2896;SDS011;1458;49.728;9.228;2024-01-15T03:27:23;1.70;;;1.70;;
2896;SDS011;1458;49.728;9.228;2024-01-15T03:29:52;1.70;;;1.70;;
2896;SDS011;1458;49.728;9.228;2024-01-15T03:32:20;1.70;;;1.70;;
2896;SDS011;1458;49.728;9.228;2024-01-15T03:34:47;1.70;;;1.70;;
2896;SDS011;1458;49.728;9.228;2024-01-15T03:37:14;1.90;;;1.90;;
2896;SDS011;1458;49.728;9.228;2024-01-15T03:39:42;1.80;;;1.80;;
2896;SDS011;1458;49.728;9.228;2024-01-15T03:42:09;1.80;;;1.80;;
2896;SDS011;1458;49.728;9.228;2024-01-15T03:44:37;1.90;;;1.90;;
2896;SDS011;1458;49.728;9.228;2024-01-15T03:47:06;1.80;;;1.80;;
2896;SDS011;1458;49.728;9.228;2024-01-15T03:49:33;1.80;;;1.80;;
2896;SDS011;1458;49.728;9.228;2024-01-15T03:52:01;1.80;;;1.80;;
2896;SDS011;1458;49.728;9.228;2024-01-15T03:54:29;1.70;;;1.70;;
2896;SDS011;1458;49.728;9.228;2024-01-15T03:56:56;1.60;;;1.60;;
2896;SDS011;1458;49.728;9.228;2024-01-15T03:59:23;1.63;;;1.63;;
2896;SDS011;1458;49.728;9.228;2024-01-15T04:01:51;1.60;;;1.60;;
2896;SDS011;1458;49.728;9.228;2024-01-15T04:04:20;1.60;;;1.60;;
2896;SDS011;1458;49.728;9.228;2024-01-15T04:06:47;1.60;;;1.60;;
2896;SDS011;1458;49.728;9.228;2024-01-15T04:09:15;1.60;;;1.60;;
2896;SDS011;1458;49.728;9.228;2024-01-15T04:11:42;1.63;;;1.63;;
2896;SDS011;1458;49.728;9.228;2024-01-15T04:14:10;1.60;;;1.60;;
2896;SDS011;1458;49.728;9.228;2024-01-15T04:16:37;1.50;;;1.50;;
2896;SDS011;1458;49.728;9.228;2024-01-15T04:19:05;1.70;;;1.70;;
2896;SDS011;1458;49.728;9.228;2024-01-15T04:21:34;1.60;;;1.60;;
2896;SDS011;1458;49.728;9.228;2024-01-15T04:24:01;1.70;;;1.70;;
2896;SDS011;1458;49.728;9.228;2024-01-15T04:26:29;1.60;;;1.60;;
2896;SDS011;1458;49.728;9.228;2024-01-15T04:28:57;1.73;;;1.73;;
2896;SDS011;1458;49.728;9.228;2024-01-15T04:31:25;1.67;;;1.67;;
2896;SDS011;1458;49.728;9.228;2024-01-15T04:33:53;1.70;;;1.70;;
2896;SDS011;1458;49.728;9.228;2024-01-15T04:36:20;1.60;;;1.60;;
2896;SDS011;1458;49.728;9.228;2024-01-15T04:38:49;1.70;;;1.70;;
2896;SDS011;1458;49.728;9.228;2024-01-15T04:41:17;1.60;;;1.60;;
2896;SDS011;1458;49.728;9.228;2024-01-15T04:43:44;1.70;;;1.70;;
2896;SDS011;1458;49.728;9.228;2024-01-15T04:46:12;1.60;;;1.60;;
2896;SDS011;1458;49.728;9.228;2024-01-15T04:48:40;1.70;;;1.70;;
2896;SDS011;1458;49.728;9.228;2024-01-15T04:51:08;1.70;;;1.70;;
2896;SDS011;1458;49.728;9.228;2024-01-15T04:53:36;1.70;;;1.70;;
2896;SDS011;1458;49.728;9.228;2024-01-15T04:56:05;1.70;;;1.70;;
2896;SDS011;1458;49.728;9.228;2024-01-15T04:58:32;1.73;;;1.73;;
2896;SDS011;1458;49.728;9.228;2024-01-15T05:01:00;1.73;;;1.73;;
2896;SDS011;1458;49.728;9.228;2024-01-15T05:03:27;1.77;;;1.77;;
2896;SDS011;1458;49.728;9.228;2024-01-15T05:05:55;1.70;;;1.70;;
2896;SDS011;1458;49.728;9.228;2024-01-15T05:08:22;1.70;;;1.70;;
2896;SDS011;1458;49.728;9.228;2024-01-15T05:10:50;1.70;;;1.70;;
2896;SDS011;1458;49.728;9.228;2024-01-15T05:13:19;1.70;;;1.70;;
2896;SDS011;1458;49.728;9.228;2024-01-15T05:15:46;1.80;;;1.80;;
2896;SDS011;1458;49.728;9.228;2024-01-15T05:18:14;1.80;;;1.80;;
2896;SDS011;1458;49.728;9.228;2024-01-15T05:20:41;1.80;;;1.80;;
2896;SDS011;1458;49.728;9.228;2024-01-15T05:23:09;1.70;;;1.70;;
2896;SDS011;1458;49.728;9.228;2024-01-15T05:25:36;1.80;;;1.80;;
2896;SDS011;1458;49.728;9.228;2024-01-15T05:28:04;1.77;;;1.77;;
2896;SDS011;1458;49.728;9.228;2024-01-15T05:30:34;1.70;;;1.70;;
2896;SDS011;1458;49.728;9.228;2024-01-15T05:33:02;1.67;;;1.67;;
2896;SDS011;1458;49.728;9.228;2024-01-15T05:35:30;1.70;;;1.70;;
2896;SDS011;1458;49.728;9.228;2024-01-15T05:37:57;1.70;;;1.70;;
2896;SDS011;1458;49.728;9.228;2024-01-15T05:40:25;1.67;;;1.67;;
2896;SDS011;1458;49.728;9.228;2024-01-15T05:42:52;1.70;;;1.70;;
2896;SDS011;1458;49.728;9.228;2024-01-15T05:45:19;1.63;;;1.63;;
2896;SDS011;1458;49.728;9.228;2024-01-15T05:47:48;1.60;;;1.60;;
2896;SDS011;1458;49.728;9.228;2024-01-15T05:50:16;1.60;;;1.60;;
2896;SDS011;1458;49.728;9.228;2024-01-15T05:52:43;1.70;;;1.70;;
2896;SDS011;1458;49.728;9.228;2024-01-15T05:55:11;1.60;;;1.60;;
2896;SDS011;1458;49.728;9.228;2024-01-15T05:57:38;1.80;;;1.80;;
2896;SDS011;1458;49.728;9.228;2024-01-15T06:00:06;1.60;;;1.60;;
2896;SDS011;1458;49.728;9.228;2024-01-15T06:02:37;1.70;;;1.70;;
2896;SDS011;1458;49.728;9.228;2024-01-15T06:05:06;1.80;;;1.80;;
2896;SDS011;1458;49.728;9.228;2024-01-15T06:07:36;1.60;;;1.60;;
2896;SDS011;1458;49.728;9.228;2024-01-15T06:10:04;1.60;;;1.60;;
2896;SDS011;1458;49.728;9.228;2024-01-15T06:12:33;1.60;;;1.60;;
2896;SDS011;1458;49.728;9.228;2024-01-15T06:15:01;1.60;;;1.60;;
2896;SDS011;1458;49.728;9.228;2024-01-15T06:17:28;1.60;;;1.60;;
2896;SDS011;1458;49.728;9.228;2024-01-15T06:19:56;1.70;;;1.70;;
2896;SDS011;1458;49.728;9.228;2024-01-15T06:22:25;1.80;;;1.80;;
2896;SDS011;1458;49.728;9.228;2024-01-15T06:24:53;1.80;;;1.80;;
2896;SDS011;1458;49.728;9.228;2024-01-15T06:27:20;1.70;;;1.70;;
2896;SDS011;1458;49.728;9.228;2024-01-15T06:29:48;1.70;;;1.70;;
2896;SDS011;1458;49.728;9.228;2024-01-15T06:32:16;1.80;;;1.80;;
2896;SDS011;1458;49.728;9.228;2024-01-15T06:34:43;1.70;;;1.70;;
2896;SDS011;1458;49.728;9.228;2024-01-15T06:37:11;1.90;;;1.90;;
2896;SDS011;1458;49.728;9.228;2024-01-15T06:39:40;1.80;;;1.80;;
2896;SDS011;1458;49.728;9.228;2024-01-15T06:42:08;1.90;;;1.90;;
2896;SDS011;1458;49.728;9.228;2024-01-15T06:44:35;1.70;;;1.70;;
2896;SDS011;1458;49.728;9.228;2024-01-15T06:47:05;1.60;;;1.60;;
2896;SDS011;1458;49.728;9.228;2024-01-15T06:49:32;1.70;;;1.70;;
2896;SDS011;1458;49.728;9.228;2024-01-15T06:52:00;1.60;;;1.60;;
2896;SDS011;1458;49.728;9.228;2024-01-15T06:54:27;1.80;;;1.80;;
2896;SDS011;1458;49.728;9.228;2024-01-15T06:56:56;1.60;;;1.60;;
2896;SDS011;1458;49.728;9.228;2024-01-15T06:59:24;1.70;;;1.70;;
2896;SDS011;1458;49.728;9.228;2024-01-15T07:01:51;1.60;;;1.60;;
2896;SDS011;1458;49.728;9.228;2024-01-15T07:04:20;1.70;;;1.70;;
2896;SDS011;1458;49.728;9.228;2024-01-15T07:06:47;1.60;;;1.60;;
2896;SDS011;1458;49.728;9.228;2024-01-15T07:09:15;1.60;;;1.60;;
2896;SDS011;1458;49.728;9.228;2024-01-15T07:11:44;1.50;;;1.50;;
2896;SDS011;1458;49.728;9.228;2024-01-15T07:14:14;1.60;;;1.60;;
2896;SDS011;1458;49.728;9.228;2024-01-15T07:16:41;1.60;;;1.60;;
2896;SDS011;1458;49.728;9.228;2024-01-15T07:19:09;1.60;;;1.60;;
2896;SDS011;1458;49.728;9.228;2024-01-15T07:21:36;1.60;;;1.60;;
2896;SDS011;1458;49.728;9.228;2024-01-15T07:24:05;1.50;;;1.50;;
2896;SDS011;1458;49.728;9.228;2024-01-15T07:26:32;1.50;;;1.50;;
2896;SDS011;1458;49.728;9.228;2024-01-15T07:29:00;1.60;;;1.60;;
2896;SDS011;1458;49.728;9.228;2024-01-15T07:31:30;1.53;;;1.53;;
2896;SDS011;1458;49.728;9.228;2024-01-15T07:33:57;1.50;;;1.50;;
2896;SDS011;1458;49.728;9.228;2024-01-15T07:36:25;1.70;;;1.70;;
2896;SDS011;1458;49.728;9.228;2024-01-15T07:38:53;1.60;;;1.60;;
2896;SDS011;1458;49.728;9.228;2024-01-15T07:41:20;1.60;;;1.60;;
2896;SDS011;1458;49.728;9.228;2024-01-15T07:43:48;1.60;;;1.60;;
2896;SDS011;1458;49.728;9.228;2024-01-15T07:46:16;1.73;;;1.73;;
2896;SDS011;1458;49.728;9.228;2024-01-15T07:48:45;1.87;;;1.87;;
2896;SDS011;1458;49.728;9.228;2024-01-15T07:51:12;1.70;;;1.70;;
2896;SDS011;1458;49.728;9.228;2024-01-15T07:53:40;1.70;;;1.70;;
2896;SDS011;1458;49.728;9.228;2024-01-15T07:56:07;1.70;;;1.70;;
2896;SDS011;1458;49.728;9.228;2024-01-15T07:58:35;1.60;;;1.60;;
2896;SDS011;1458;49.728;9.228;2024-01-15T08:01:03;1.60;;;1.60;;
2896;SDS011;1458;49.728;9.228;2024-01-15T08:03:31;1.60;;;1.60;;
2896;SDS011;1458;49.728;9.228;2024-01-15T08:06:00;1.53;;;1.53;;
2896;SDS011;1458;49.728;9.228;2024-01-15T08:08:28;1.50;;;1.50;;
2896;SDS011;1458;49.728;9.228;2024-01-15T08:10:56;1.50;;;1.50;;
2896;SDS011;1458;49.728;9.228;2024-01-15T08:13:26;1.43;;;1.43;;
2896;SDS011;1458;49.728;9.228;2024-01-15T08:15:54;1.20;;;1.20;;
2896;SDS011;1458;49.728;9.228;2024-01-15T08:18:21;1.30;;;1.30;;
2896;SDS011;1458;49.728;9.228;2024-01-15T08:20:49;1.30;;;1.30;;
2896;SDS011;1458;49.728;9.228;2024-01-15T08:23:20;1.30;;;1.30;;
2896;SDS011;1458;49.728;9.228;2024-01-15T08:25:48;1.30;;;1.30;;
2896;SDS011;1458;49.728;9.228;2024-01-15T08:28:16;1.27;;;1.27;;
2896;SDS011;1458;49.728;9.228;2024-01-15T08:30:43;1.40;;;1.40;;
2896;SDS011;1458;49.728;9.228;2024-01-15T08:33:11;1.30;;;1.30;;
2896;SDS011;1458;49.728;9.228;2024-01-15T08:35:40;1.30;;;1.30;;
2896;SDS011;1458;49.728;9.228;2024-01-15T08:38:08;1.27;;;1.27;;
2896;SDS011;1458;49.728;9.228;2024-01-15T08:40:37;1.30;;;1.30;;
2896;SDS011;1458;49.728;9.228;2024-01-15T08:43:04;1.40;;;1.40;;
2896;SDS011;1458;49.728;9.228;2024-01-15T08:45:32;1.37;;;1.37;;
2896;SDS011;1458;49.728;9.228;2024-01-15T08:47:59;1.40;;;1.40;;
2896;SDS011;1458;49.728;9.228;2024-01-15T08:50:29;1.40;;;1.40;;
2896;SDS011;1458;49.728;9.228;2024-01-15T08:52:59;1.40;;;1.40;;
2896;SDS011;1458;49.728;9.228;2024-01-15T08:55:27;1.40;;;1.40;;
2896;SDS011;1458;49.728;9.228;2024-01-15T08:57:56;1.40;;;1.40;;
2896;SDS011;1458;49.728;9.228;2024-01-15T09:00:23;1.40;;;1.40;;
2896;SDS011;1458;49.728;9.228;2024-01-15T09:02:51;1.37;;;1.37;;
2896;SDS011;1458;49.728;9.228;2024-01-15T09:05:18;1.40;;;1.40;;
2896;SDS011;1458;49.728;9.228;2024-01-15T09:07:46;1.40;;;1.40;;
2896;SDS011;1458;49.728;9.228;2024-01-15T09:10:14;1.43;;;1.43;;
2896;SDS011;1458;49.728;9.228;2024-01-15T09:12:41;1.50;;;1.50;;
2896;SDS011;1458;49.728;9.228;2024-01-15T09:15:10;1.50;;;1.50;;
2896;SDS011;1458;49.728;9.228;2024-01-15T09:17:38;1.50;;;1.50;;
2896;SDS011;1458;49.728;9.228;2024-01-15T09:20:06;1.50;;;1.50;;
2896;SDS011;1458;49.728;9.228;2024-01-15T09:22:35;1.50;;;1.50;;
2896;SDS011;1458;49.728;9.228;2024-01-15T09:25:06;1.50;;;1.50;;
2896;SDS011;1458;49.728;9.228;2024-01-15T09:27:34;1.60;;;1.60;;
2896;SDS011;1458;49.728;9.228;2024-01-15T09:30:02;1.60;;;1.60;;
2896;SDS011;1458;49.728;9.228;2024-01-15T09:32:32;1.70;;;1.70;;
2896;SDS011;1458;49.728;9.228;2024-01-15T09:35:00;1.60;;;1.60;;
2896;SDS011;1458;49.728;9.228;2024-01-15T09:37:27;1.60;;;1.60;;
2896;SDS011;1458;49.728;9.228;2024-01-15T09:39:55;1.60;;;1.60;;
2896;SDS011;1458;49.728;9.228;2024-01-15T09:42:23;1.60;;;1.60;;
2896;SDS011;1458;49.728;9.228;2024-01-15T09:44:52;1.60;;;1.60;;
2896;SDS011;1458;49.728;9.228;2024-01-15T09:47:22;1.50;;;1.50;;
2896;SDS011;1458;49.728;9.228;2024-01-15T09:49:53;1.43;;;1.43;;
2896;SDS011;1458;49.728;9.228;2024-01-15T09:52:23;1.50;;;1.50;;
2896;SDS011;1458;49.728;9.228;2024-01-15T09:54:52;1.60;;;1.60;;
2896;SDS011;1458;49.728;9.228;2024-01-15T09:57:19;1.60;;;1.60;;
2896;SDS011;1458;49.728;9.228;2024-01-15T09:59:47;1.70;;;1.70;;
2896;SDS011;1458;49.728;9.228;2024-01-15T10:02:15;1.50;;;1.50;;
2896;SDS011;1458;49.728;9.228;2024-01-15T10:04:44;1.60;;;1.60;;
2896;SDS011;1458;49.728;9.228;2024-01-15T10:07:14;1.60;;;1.60;;
2896;SDS011;1458;49.728;9.228;2024-01-15T10:09:44;1.67;;;1.67;;
2896;SDS011;1458;49.728;9.228;2024-01-15T10:12:12;1.83;;;1.83;;
2896;SDS011;1458;49.728;9.228;2024-01-15T10:14:40;1.60;;;1.60;;
2896;SDS011;1458;49.728;9.228;2024-01-15T10:17:12;1.77;;;1.77;;
2896;SDS011;1458;49.728;9.228;2024-01-15T10:19:41;1.63;;;1.63;;
2896;SDS011;1458;49.728;9.228;2024-01-15T10:22:09;1.70;;;1.70;;
2896;SDS011;1458;49.728;9.228;2024-01-15T10:24:37;1.70;;;1.70;;
2896;SDS011;1458;49.728;9.228;2024-01-15T10:27:07;1.70;;;1.70;;
2896;SDS011;1458;49.728;9.228;2024-01-15T10:29:36;1.70;;;1.70;;
2896;SDS011;1458;49.728;9.228;2024-01-15T10:32:06;1.70;;;1.70;;
2896;SDS011;1458;49.728;9.228;2024-01-15T10:34:37;1.70;;;1.70;;
2896;SDS011;1458;49.728;9.228;2024-01-15T10:37:07;1.80;;;1.80;;
2896;SDS011;1458;49.728;9.228;2024-01-15T10:39:35;1.80;;;1.80;;
2896;SDS011;1458;49.728;9.228;2024-01-15T10:42:04;1.90;;;1.90;;
2896;SDS011;1458;49.728;9.228;2024-01-15T10:44:32;1.90;;;1.90;;
2896;SDS011;1458;49.728;9.228;2024-01-15T10:47:00;2.00;;;2.00;;
2896;SDS011;1458;49.728;9.228;2024-01-15T10:49:28;1.90;;;1.90;;
2896;SDS011;1458;49.728;9.228;2024-01-15T10:51:56;2.00;;;2.00;;
2896;SDS011;1458;49.728;9.228;2024-01-15T10:54:23;2.00;;;2.00;;
2896;SDS011;1458;49.728;9.228;2024-01-15T10:56:53;1.90;;;1.90;;
2896;SDS011;1458;49.728;9.228;2024-01-15T10:59:24;1.97;;;1.97;;
2896;SDS011;1458;49.728;9.228;2024-01-15T11:01:51;1.90;;;1.90;;
2896;SDS011;1458;49.728;9.228;2024-01-15T11:04:20;1.90;;;1.90;;
2896;SDS011;1458;49.728;9.228;2024-01-15T11:06:50;1.83;;;1.83;;
2896;SDS011;1458;49.728;9.228;2024-01-15T11:09:19;1.80;;;1.80;;
2896;SDS011;1458;49.728;9.228;2024-01-15T11:11:47;1.80;;;1.80;;
2896;SDS011;1458;49.728;9.228;2024-01-15T11:14:38;1.87;;;1.87;;
2896;SDS011;1458;49.728;9.228;2024-01-15T11:17:09;1.90;;;1.90;;
2896;SDS011;1458;49.728;9.228;2024-01-15T11:19:37;1.83;;;1.83;;
2896;SDS011;1458;49.728;9.228;2024-01-15T11:22:07;1.83;;;1.83;;
2896;SDS011;1458;49.728;9.228;2024-01-15T11:24:36;1.70;;;1.70;;
2896;SDS011;1458;49.728;9.228;2024-01-15T11:27:05;1.80;;;1.80;;
2896;SDS011;1458;49.728;9.228;2024-01-15T11:29:35;1.70;;;1.70;;
2896;SDS011;1458;49.728;9.228;2024-01-15T11:32:04;1.60;;;1.60;;
2896;SDS011;1458;49.728;9.228;2024-01-15T11:37:28;1.60;;;1.60;;
2896;SDS011;1458;49.728;9.228;2024-01-15T11:40:36;1.50;;;1.50;;
2896;SDS011;1458;49.728;9.228;2024-01-15T11:43:07;1.60;;;1.60;;
2896;SDS011;1458;49.728;9.228;2024-01-15T11:45:40;1.70;;;1.70;;
2896;SDS011;1458;49.728;9.228;2024-01-15T11:48:11;1.40;;;1.40;;
2896;SDS011;1458;49.728;9.228;2024-01-15T11:50:41;1.60;;;1.60;;
2896;SDS011;1458;49.728;9.228;2024-01-15T11:53:15;1.40;;;1.40;;
2896;SDS011;1458;49.728;9.228;2024-01-15T11:55:48;1.50;;;1.50;;
2896;SDS011;1458;49.728;9.228;2024-01-15T11:58:18;1.50;;;1.50;;
2896;SDS011;1458;49.728;9.228;2024-01-15T12:00:47;1.40;;;1.40;;
2896;SDS011;1458;49.728;9.228;2024-01-15T12:03:16;1.60;;;1.60;;
2896;SDS011;1458;49.728;9.228;2024-01-15T12:05:44;1.40;;;1.40;;
2896;SDS011;1458;49.728;9.228;2024-01-15T12:08:12;1.63;;;1.63;;
2896;SDS011;1458;49.728;9.228;2024-01-15T12:10:41;1.50;;;1.50;;
2896;SDS011;1458;49.728;9.228;2024-01-15T12:13:10;1.50;;;1.50;;
2896;SDS011;1458;49.728;9.228;2024-01-15T12:15:39;1.50;;;1.50;;
2896;SDS011;1458;49.728;9.228;2024-01-15T12:18:08;1.40;;;1.40;;
2896;SDS011;1458;49.728;9.228;2024-01-15T12:20:39;1.40;;;1.40;;
2896;SDS011;1458;49.728;9.228;2024-01-15T12:23:12;1.60;;;1.60;;
2896;SDS011;1458;49.728;9.228;2024-01-15T12:25:41;1.40;;;1.40;;
2896;SDS011;1458;49.728;9.228;2024-01-15T12:28:09;1.60;;;1.60;;
2896;SDS011;1458;49.728;9.228;2024-01-15T12:30:36;1.70;;;1.70;;
2896;SDS011;1458;49.728;9.228;2024-01-15T12:33:05;1.67;;;1.67;;
2896;SDS011;1458;49.728;9.228;2024-01-15T12:35:34;1.70;;;1.70;;
2896;SDS011;1458;49.728;9.228;2024-01-15T12:38:02;1.90;;;1.90;;
2896;SDS011;1458;49.728;9.228;2024-01-15T12:40:31;1.90;;;1.90;;
2896;SDS011;1458;49.728;9.228;2024-01-15T12:43:01;1.80;;;1.80;;
2896;SDS011;1458;49.728;9.228;2024-01-15T12:45:29;2.00;;;2.00;;
2896;SDS011;1458;49.728;9.228;2024-01-15T12:47:58;1.90;;;1.90;;
2896;SDS011;1458;49.728;9.228;2024-01-15T12:50:28;2.00;;;2.00;;
2896;SDS011;1458;49.728;9.228;2024-01-15T12:52:55;2.00;;;2.00;;
2896;SDS011;1458;49.728;9.228;2024-01-15T12:55:24;2.00;;;2.00;;
2896;SDS011;1458;49.728;9.228;2024-01-15T12:57:52;1.90;;;1.90;;
2896;SDS011;1458;49.728;9.228;2024-01-15T13:00:22;1.80;;;1.80;;
2896;SDS011;1458;49.728;9.228;2024-01-15T13:02:51;1.90;;;1.90;;
2896;SDS011;1458;49.728;9.228;2024-01-15T13:05:19;2.00;;;2.00;;
2896;SDS011;1458;49.728;9.228;2024-01-15T13:07:48;2.00;;;2.00;;
2896;SDS011;1458;49.728;9.228;2024-01-15T13:10:16;1.80;;;1.80;;
2896;SDS011;1458;49.728;9.228;2024-01-15T13:12:44;1.70;;;1.70;;
2896;SDS011;1458;49.728;9.228;2024-01-15T13:15:12;1.70;;;1.70;;
2896;SDS011;1458;49.728;9.228;2024-01-15T13:17:43;1.60;;;1.60;;
2896;SDS011;1458;49.728;9.228;2024-01-15T13:20:11;1.40;;;1.40;;
2896;SDS011;1458;49.728;9.228;2024-01-15T13:22:41;1.50;;;1.50;;
2896;SDS011;1458;49.728;9.228;2024-01-15T13:25:09;1.60;;;1.60;;
2896;SDS011;1458;49.728;9.228;2024-01-15T13:27:36;1.50;;;1.50;;
2896;SDS011;1458;49.728;9.228;2024-01-15T13:30:04;1.50;;;1.50;;
2896;SDS011;1458;49.728;9.228;2024-01-15T13:32:34;1.60;;;1.60;;
2896;SDS011;1458;49.728;9.228;2024-01-15T13:35:03;1.50;;;1.50;;
2896;SDS011;1458;49.728;9.228;2024-01-15T13:37:34;1.60;;;1.60;;
2896;SDS011;1458;49.728;9.228;2024-01-15T13:40:03;1.60;;;1.60;;
2896;SDS011;1458;49.728;9.228;2024-01-15T13:42:33;1.57;;;1.57;;
2896;SDS011;1458;49.728;9.228;2024-01-15T13:45:03;1.60;;;1.60;;
2896;SDS011;1458;49.728;9.228;2024-01-15T13:47:32;1.60;;;1.60;;
2896;SDS011;1458;49.728;9.228;2024-01-15T13:50:00;1.40;;;1.40;;
2896;SDS011;1458;49.728;9.228;2024-01-15T13:52:29;1.40;;;1.40;;
2896;SDS011;1458;49.728;9.228;2024-01-15T13:54:56;1.50;;;1.50;;
2896;SDS011;1458;49.728;9.228;2024-01-15T13:57:24;1.50;;;1.50;;
2896;SDS011;1458;49.728;9.228;2024-01-15T13:59:51;1.50;;;1.50;;
2896;SDS011;1458;49.728;9.228;2024-01-15T14:02:20;1.40;;;1.40;;
2896;SDS011;1458;49.728;9.228;2024-01-15T14:04:47;1.73;;;1.73;;
2896;SDS011;1458;49.728;9.228;2024-01-15T14:07:15;1.47;;;1.47;;
2896;SDS011;1458;49.728;9.228;2024-01-15T14:09:44;1.40;;;1.40;;
2896;SDS011;1458;49.728;9.228;2024-01-15T14:12:11;1.50;;;1.50;;
2896;SDS011;1458;49.728;9.228;2024-01-15T14:14:39;1.60;;;1.60;;
2896;SDS011;1458;49.728;9.228;2024-01-15T14:17:09;1.70;;;1.70;;
2896;SDS011;1458;49.728;9.228;2024-01-15T14:19:37;1.40;;;1.40;;
2896;SDS011;1458;49.728;9.228;2024-01-15T14:22:05;1.47;;;1.47;;
2896;SDS011;1458;49.728;9.228;2024-01-15T14:24:32;1.47;;;1.47;;
2896;SDS011;1458;49.728;9.228;2024-01-15T14:27:02;1.30;;;1.30;;
2896;SDS011;1458;49.728;9.228;2024-01-15T14:29:32;1.40;;;1.40;;
2896;SDS011;1458;49.728;9.228;2024-01-15T14:32:00;1.43;;;1.43;;
2896;SDS011;1458;49.728;9.228;2024-01-15T14:34:28;1.20;;;1.20;;
2896;SDS011;1458;49.728;9.228;2024-01-15T14:36:55;1.30;;;1.30;;
2896;SDS011;1458;49.728;9.228;2024-01-15T14:39:24;1.20;;;1.20;;
2896;SDS011;1458;49.728;9.228;2024-01-15T14:41:51;1.30;;;1.30;;
2896;SDS011;1458;49.728;9.228;2024-01-15T14:44:20;1.20;;;1.20;;
2896;SDS011;1458;49.728;9.228;2024-01-15T14:46:49;1.20;;;1.20;;
2896;SDS011;1458;49.728;9.228;2024-01-15T14:49:16;1.20;;;1.20;;
2896;SDS011;1458;49.728;9.228;2024-01-15T14:51:44;1.20;;;1.20;;
2896;SDS011;1458;49.728;9.228;2024-01-15T14:54:12;1.30;;;1.30;;
2896;SDS011;1458;49.728;9.228;2024-01-15T14:56:40;1.30;;;1.30;;
2896;SDS011;1458;49.728;9.228;2024-01-15T14:59:08;1.30;;;1.30;;
2896;SDS011;1458;49.728;9.228;2024-01-15T15:01:37;1.50;;;1.50;;
2896;SDS011;1458;49.728;9.228;2024-01-15T15:04:05;1.50;;;1.50;;
2896;SDS011;1458;49.728;9.228;2024-01-15T15:06:33;1.50;;;1.50;;
2896;SDS011;1458;49.728;9.228;2024-01-15T15:09:00;1.40;;;1.40;;
2896;SDS011;1458;49.728;9.228;2024-01-15T16:42:12;1.30;;;1.30;;
2896;SDS011;1458;49.728;9.228;2024-01-15T16:44:41;1.30;;;1.30;;
2896;SDS011;1458;49.728;9.228;2024-01-15T16:47:10;1.30;;;1.30;;
2896;SDS011;1458;49.728;9.228;2024-01-15T16:49:40;1.30;;;1.30;;
2896;SDS011;1458;49.728;9.228;2024-01-15T16:52:09;1.50;;;1.50;;
2896;SDS011;1458;49.728;9.228;2024-01-15T16:54:38;1.30;;;1.30;;
2896;SDS011;1458;49.728;9.228;2024-01-15T16:57:06;1.30;;;1.30;;